• Join FlightAware (Why Join?)
  • Login
  • US Flag 
06:44PM EST


 

Airport Tracker/Info


-or-


 

Live Flight TrackerFlight Track Log ✈ EJA951 ✈ 22-Mar-2014 ✈ KOKC - KMIA

Flight Track Log - Related Links

Times and Time Zones

All times are in EDT time to prevent confusion due to time zone crossing. See the EJA951 flight status page for this flight to view local times or setup timezone preferences in your user account.

Time Position Orientation Groundspeed Altitude Reporting Facility
EDT Latitude Longitude Course Direction KTS MPH feet Rate Location/Type
01:38PM 35.4044 -97.5911 13° North 171 197 2,200  Level Fort Worth Center
01:39PM 35.4514 -97.5781 13° North 201 231 5,100 3,180 Climbing Fort Worth Center
01:39PM 35.4575 -97.5444 77° East 217 250 6,500 3,360 Climbing Fort Worth Center
01:40PM 35.4511 -97.4450 94° East 292 336 10,100 2,580 Climbing Fort Worth Center
01:41PM 35.4450 -97.3467 94° East 343 395 11,900 1,800 Climbing Fort Worth Center
01:42PM 35.4278 -97.2017 98° East 375 432 13,900 1,800 Climbing Fort Worth Center
01:43PM 35.4075 -97.0528 99° East 399 459 15,700 1,800 Climbing Fort Worth Center
01:44PM 35.3894 -96.9128 99° East 414 476 17,700 1,680 Climbing Fort Worth Center
01:45PM 35.3711 -96.7692 99° East 422 486 19,200 1,500 Climbing Fort Worth Center
01:47PM 35.3514 -96.6172 99° East 447 514 20,900 1,620 Climbing Fort Worth Center
01:48PM 35.3317 -96.4617 99° East 458 527 22,600 1,680 Climbing Fort Worth Center
01:49PM 35.3092 -96.2997 100° East 481 554 24,400 1,800 Climbing Fort Worth Center
01:50PM 35.2817 -96.0997 100° East 494 568 26,400 1,740 Climbing Fort Worth Center
01:51PM 35.2578 -95.9242 99° East 520 598 28,100 1,380 Climbing Fort Worth Center
01:52PM 35.2356 -95.7647 100° East 534 615 29,300 1,260 Climbing Fort Worth Center
01:53PM 35.2028 -95.5406 100° East 558 642 30,800 1,500 Climbing Fort Worth Center
01:54PM 35.1750 -95.3458 100° East 576 663 32,500 1,440 Climbing Fort Worth Center
01:54PM 35.1519 -95.1861 100° East 585 673 33,400 840 Climbing Memphis Center
01:56PM 35.1233 -94.9817 100° East 603 694 34,000 240 Climbing Memphis Center
01:57PM 35.0914 -94.7672 100° East 631 726 34,000  Level Memphis Center
01:58PM 35.0558 -94.5397 101° East 650 748 34,000  Level Memphis Center
01:59PM 34.9906 -94.3367 111° Southeast 649 747 34,000  Level Memphis Center
02:00PM 34.9169 -94.1339 114° Southeast 647 745 34,100 720 Climbing Memphis Center
02:01PM 34.8347 -93.9033 113° Southeast 638 734 35,500 1,260 Climbing Memphis Center
02:02PM 34.7667 -93.7125 113° Southeast 629 724 36,800 1,320 Climbing Memphis Center
02:03PM 34.6989 -93.5242 114° Southeast 622 716 38,300 1,500 Climbing Memphis Center
02:04PM 34.6328 -93.3414 114° Southeast 607 699 39,900 1,260 Climbing Memphis Center
02:05PM 34.5669 -93.1614 114° Southeast 596 686 41,000 480 Climbing Memphis Center
02:06PM 34.5006 -92.9819 114° Southeast 591 680 41,000  Level Memphis Center
02:07PM 34.4183 -92.7583 114° Southeast 602 693 41,000  Level Memphis Center
02:08PM 34.3483 -92.5706 114° Southeast 611 703 41,000  Level Memphis Center
02:09PM 34.2772 -92.3817 114° Southeast 613 705 41,000  Level Memphis Center
02:10PM 34.2072 -92.1925 114° Southeast 616 709 41,000  Level Memphis Center
02:11PM 34.1353 -92.0042 115° Southeast 617 710 41,000  Level Memphis Center
02:12PM 34.0556 -91.7947 115° Southeast 617 710 41,000  Level Memphis Center
02:13PM 33.9756 -91.5903 115° Southeast 617 710 41,000  Level Memphis Center
02:14PM 33.9056 -91.4042 114° Southeast 617 710 41,000  Level Memphis Center
02:15PM 33.8344 -91.2183 115° Southeast 617 710 41,000  Level Memphis Center
02:16PM 33.7589 -91.0256 115° Southeast 617 710 41,000  Level Memphis Center
02:17PM 33.6856 -90.8394 115° Southeast 618 711 41,000  Level Memphis Center
02:18PM 33.6131 -90.6550 115° Southeast 617 710 41,000  Level Memphis Center
02:19PM 33.5397 -90.4697 115° Southeast 617 710 41,000  Level Memphis Center
02:20PM 33.4447 -90.2558 118° Southeast 612 704 41,000  Level Memphis Center
02:21PM 33.3381 -90.1033 130° Southeast 606 697 41,000  Level Memphis Center
02:22PM 33.2294 -89.9547 131° Southeast 599 689 41,000  Level Memphis Center
02:23PM 33.1203 -89.8042 131° Southeast 596 686 41,000  Level Memphis Center
02:24PM 33.0078 -89.6503 131° Southeast 597 687 41,000  Level Memphis Center
02:25PM 32.8964 -89.4992 131° Southeast 598 688 41,000  Level Memphis Center
02:27PM 32.7864 -89.3514 131° Southeast 598 688 41,000  Level Memphis Center
02:28PM 32.6756 -89.2031 132° Southeast 598 688 41,000  Level Memphis Center
02:29PM 32.5436 -89.0250 131° Southeast 599 689 41,000  Level Memphis Center
02:30PM 32.4333 -88.8781 132° Southeast 599 689 41,000  Level Memphis Center
02:31PM 32.3242 -88.7314 131° Southeast 599 689 41,000  Level Memphis Center
02:32PM 32.2178 -88.5811 130° Southeast 599 689 41,000  Level Memphis Center
02:33PM 32.1114 -88.4325 130° Southeast 598 688 41,000  Level Memphis Center
02:34PM 31.9853 -88.2536 130° Southeast 598 688 41,000  Level Memphis Center
02:35PM 31.8753 -88.1022 131° Southeast 596 686 41,000  Level Memphis Center
02:36PM 31.7672 -87.9533 130° Southeast 595 685 41,000  Level Memphis Center
02:37PM 31.6603 -87.8050 130° Southeast 595 685 41,000  Level Memphis Center
02:38PM 31.5522 -87.6581 131° Southeast 595 685 41,000  Level Memphis Center
02:39PM 31.4442 -87.5103 131° Southeast 594 684 41,000  Level Memphis Center
02:40PM 31.3364 -87.3642 131° Southeast 594 684 41,000  Level Memphis Center
02:41PM 31.2267 -87.2119 130° Southeast 590 679 41,000  Level Jacksonville Center
02:42PM 31.1189 -87.0661 131° Southeast 590 679 41,000  Level Jacksonville Center
02:43PM 31.0106 -86.9233 131° Southeast 590 679 41,000  Level Jacksonville Center
02:44PM 30.9025 -86.7783 131° Southeast 585 673 41,000  Level Jacksonville Center
02:45PM 30.8247 -86.5864 115° Southeast 596 686 41,000  Level Jacksonville Center
02:46PM 30.8197 -86.3903 92° East 577 664 41,000  Level Jacksonville Center
02:47PM 30.8147 -86.1917 92° East 597 687 41,000  Level Jacksonville Center
02:48PM 30.7589 -86.0039 109° East 603 694 41,000  Level Jacksonville Center
02:49PM 30.6686 -85.8414 123° Southeast 594 684 41,000  Level Jacksonville Center
02:50PM 30.5550 -85.7053 134° Southeast 584 672 41,000  Level Jacksonville Center
02:51PM 30.4367 -85.5669 135° Southeast 589 678 41,000  Level Jacksonville Center
02:52PM 30.3328 -85.4436 134° Southeast 589 678 41,000  Level Jacksonville Center
02:53PM 30.2164 -85.3083 135° Southeast 595 685 41,000  Level Jacksonville Center
02:54PM 30.1000 -85.1711 134° Southeast 595 685 41,000  Level Jacksonville Center
02:55PM 29.9833 -85.0364 135° Southeast 595 685 41,000  Level Jacksonville Center
02:56PM 29.8728 -84.8997 133° Southeast 589 678 41,000  Level Jacksonville Center
02:57PM 29.7517 -84.7658 136° Southeast 589 678 41,000  Level Jacksonville Center
02:58PM 29.6344 -84.6344 136° Southeast 589 678 41,000  Level Jacksonville Center
02:59PM 29.5172 -84.5011 135° Southeast 589 678 41,000  Level Jacksonville Center
03:00PM 29.4000 -84.3681 135° Southeast 589 678 41,000  Level Jacksonville Center
03:01PM 29.2825 -84.2331 135° Southeast 584 672 41,000  Level Jacksonville Center
03:02PM 29.1669 -84.1006 135° Southeast 584 672 41,000  Level Jacksonville Center
03:03PM 29.0492 -83.9708 136° Southeast 584 672 41,000  Level Jacksonville Center
03:04PM 28.9186 -83.8225 135° Southeast 584 672 41,000  Level Jacksonville Center
03:05PM 28.8047 -83.6933 135° Southeast 577 664 41,000  Level Jacksonville Center
03:06PM 28.6867 -83.5622 136° Southeast 577 664 41,000  Level Jacksonville Center
03:07PM 28.5683 -83.4292 135° Southeast 582 670 41,000  Level Jacksonville Center
03:08PM 28.4539 -83.2986 135° Southeast 582 670 41,000  Level Jacksonville Center
03:09PM 28.3519 -83.1875 136° Southeast 576 663 41,000  Level Jacksonville Center
03:12PM 27.9764 -82.7783 136° Southeast 580 667 41,000  Level Miami Center
03:13PM 27.8356 -82.6981 153° Southeast 565 650 41,000  Level Miami Center
03:14PM 27.7081 -82.6542 163° South 545 627 41,000  Level Miami Center
03:15PM 27.5642 -82.5978 161° South 551 634 41,000  Level Miami Center
03:16PM 27.4017 -82.5381 162° South 551 634 41,000  Level Miami Center
03:17PM 27.2578 -82.4844 162° South 556 640 41,000  Level Miami Center
03:18PM 27.1242 -82.4358 162° South 557 641 41,000  Level Miami Center
03:19PM 26.9636 -82.3792 163° South 557 641 41,000  Level Miami Center
03:20PM 26.8214 -82.3261 162° South 551 634 41,000  Level Miami Center
03:21PM 26.6775 -82.2728 162° South 546 628 41,000  Level Miami Center
03:22PM 26.5506 -82.2019 153° Southeast 555 639 41,000 -420 Level Miami Center
03:23PM 26.4381 -82.0811 136° Southeast 559 643 40,200 -2,580 Descending Miami Center
03:24PM 26.3192 -81.9575 137° Southeast 564 649 35,900 -4,200 Descending Miami Center
03:25PM 26.2067 -81.8325 135° Southeast 571 657 31,900 -4,140 Descending Miami Center
03:26PM 26.1200 -81.6808 122° Southeast 577 664 27,700 -4,080 Descending Miami Center
03:27PM 26.0728 -81.5217 108° East 558 642 23,800 -3,720 Descending Miami Center
03:28PM 26.0272 -81.3814 110° East 514 592 20,300 -3,660 Descending Miami Center
03:29PM 25.9775 -81.2292 110° East 485 558 16,500 -3,480 Descending Miami Center
03:30PM 25.9486 -81.1497 112° Southeast 414 476 14,600 -2,700 Descending Miami Center
03:30PM 25.9431 -81.1217 102° East 455 524 13,800 -2,940 Descending Miami Center
03:30PM 25.9178 -81.0608 115° Southeast 380 437 12,200 -2,700 Descending Miami Center
03:31PM 25.9064 -81.0142 105° East 404 465 11,100 -2,220 Descending Miami Center
03:32PM 25.8850 -80.9603 114° Southeast 327 376 10,000 -1,140 Descending Miami Center
03:32PM 25.8756 -80.9208 105° East 355 409 10,000 -240 Level Miami Center
03:33PM 25.8542 -80.8717 116° Southeast 278 320 9,800 -1,020 Descending Miami Center
03:33PM 25.8528 -80.8369 93° East 313 360 9,000 -1,500 Descending Miami Center
03:34PM 25.8461 -80.7836 98° East 289 333 8,300 -1,200 Descending Miami Center
03:34PM 25.8469 -80.7489 88° East 289 333 7,800 -1,260 Descending Miami Center
03:35PM 25.8461 -80.7028 91° East 260 299 7,000 -1,440 Descending Miami Center
03:35PM 25.8633 -80.6781 52° Northeast 248 285 6,400 -1,380 Descending Miami Center
03:36PM 25.8644 -80.6342 88° East 208 239 5,600 -1,320 Descending Miami Center
03:36PM 25.8650 -80.6133 88° East 226 260 5,100 -1,320 Descending Miami Center
03:37PM 25.8597 -80.5739 98° East 194 223 4,300 -1,320 Descending Miami Center
03:37PM 25.8583 -80.5486 93° East 206 237 3,800 -1,320 Descending Miami Center
03:38PM 25.8422 -80.5203 122° Southeast 180 207 3,000 -1,320 Descending Miami Center
03:38PM 25.8367 -80.4972 105° East 187 215 2,500 -1,320 Descending Miami Center
03:39PM 25.8167 -80.4642 124° Southeast 204 235 1,700 -1,020 Descending Miami Center
03:39PM 25.8150 -80.4411 95° East 187 215 1,500 -240 Descending Miami Center
03:40PM 25.8011 -80.4083 115° Southeast 174 200 1,500 -180 Level Miami Center
03:41PM 25.7961 -80.3644 97° East 147 169 1,200 -540 Descending Miami Center
03:42PM 25.8014 -80.3161 83° East 147 169 500 -720 Descending Miami Center
03:44PM 25.7954 -80.2901 20° North  Level Estimated